ilmateenistus.ee keskkonnaagentuur.ee
EETN Tallinna lennuväli
FTEO31 EETN 161700
TAF EETN 161700Z 1618/1718 06012KT CAVOK TEMPO 1618/1704 VRB02KT=

METAR EETN 162220Z 06005KT CAVOK 22/18 Q1015 =
Tallinna lennuväli
EEKA Kärdla lennuväli
METAR EEKA 162150Z NIL=
Kärdla lennuväli
EEKE Kuressaare lennuväli
METAR EEKE 162150Z AUTO 03006KT 9999NDV NCD 21/15 Q1013=
Kuressaare lennuväli
EEPU Pärnu lennuväli
METAR EEPU 162150Z NIL=
Pärnu lennuväli
EETU Tartu lennuväli
FCEO32 EETN 162000
TAF EETU 162000Z 1621/1703 03007KT CAVOK=

METAR EETU 162220Z 04004KT 010V110 CAVOK 21/14 Q1013=
Tartu lennuväli
EEEI Ämari lennuväli
METAR EEEI 162220Z AUTO 04003KT CAVOK 18/15 Q1014=
Ämari lennuväli